sensor_id;sensor_type;location;lat;lon;timestamp;temperature;humidity
10300;DHT22;5195;48.562;9.192;2022-08-27T00:01:37;23.70;53.70
10300;DHT22;5195;48.562;9.192;2022-08-27T00:04:02;23.40;54.00
10300;DHT22;5195;48.562;9.192;2022-08-27T00:06:28;23.50;54.10
10300;DHT22;5195;48.562;9.192;2022-08-27T00:08:53;23.50;54.20
10300;DHT22;5195;48.562;9.192;2022-08-27T00:11:20;23.70;54.20
10300;DHT22;5195;48.562;9.192;2022-08-27T00:13:45;23.60;54.10
10300;DHT22;5195;48.562;9.192;2022-08-27T00:16:11;23.80;54.00
10300;DHT22;5195;48.562;9.192;2022-08-27T00:18:36;23.70;54.50
10300;DHT22;5195;48.562;9.192;2022-08-27T00:21:01;23.40;54.50
10300;DHT22;5195;48.562;9.192;2022-08-27T00:23:28;23.60;54.50
10300;DHT22;5195;48.562;9.192;2022-08-27T00:25:53;23.60;54.50
10300;DHT22;5195;48.562;9.192;2022-08-27T00:28:19;23.40;54.90
10300;DHT22;5195;48.562;9.192;2022-08-27T00:30:44;23.30;55.40
10300;DHT22;5195;48.562;9.192;2022-08-27T00:33:10;23.20;55.60
10300;DHT22;5195;48.562;9.192;2022-08-27T00:35:36;23.40;55.30
10300;DHT22;5195;48.562;9.192;2022-08-27T00:38:01;23.50;55.10
10300;DHT22;5195;48.562;9.192;2022-08-27T00:40:27;23.30;55.20
10300;DHT22;5195;48.562;9.192;2022-08-27T00:42:52;23.20;55.70
10300;DHT22;5195;48.562;9.192;2022-08-27T00:45:20;23.00;56.00
10300;DHT22;5195;48.562;9.192;2022-08-27T00:47:52;23.20;55.80
10300;DHT22;5195;48.562;9.192;2022-08-27T00:50:18;23.30;55.70
10300;DHT22;5195;48.562;9.192;2022-08-27T00:52:53;23.50;55.30
10300;DHT22;5195;48.562;9.192;2022-08-27T00:55:19;23.90;54.90
10300;DHT22;5195;48.562;9.192;2022-08-27T00:57:43;24.10;54.10
10300;DHT22;5195;48.562;9.192;2022-08-27T01:00:12;24.00;54.20
10300;DHT22;5195;48.562;9.192;2022-08-27T01:02:35;23.70;54.80
10300;DHT22;5195;48.562;9.192;2022-08-27T01:05:12;23.50;55.10
10300;DHT22;5195;48.562;9.192;2022-08-27T01:07:37;23.60;55.00
10300;DHT22;5195;48.562;9.192;2022-08-27T01:10:03;23.90;54.50
10300;DHT22;5195;48.562;9.192;2022-08-27T01:12:29;23.80;54.50
10300;DHT22;5195;48.562;9.192;2022-08-27T01:14:53;23.50;54.90
10300;DHT22;5195;48.562;9.192;2022-08-27T01:17:19;23.60;54.80
10300;DHT22;5195;48.562;9.192;2022-08-27T01:19:56;23.60;54.90
10300;DHT22;5195;48.562;9.192;2022-08-27T01:22:33;23.50;54.80
10300;DHT22;5195;48.562;9.192;2022-08-27T01:24:58;23.50;55.00
10300;DHT22;5195;48.562;9.192;2022-08-27T01:27:24;23.60;55.00
10300;DHT22;5195;48.562;9.192;2022-08-27T01:29:48;23.50;55.10
10300;DHT22;5195;48.562;9.192;2022-08-27T01:32:15;23.30;55.50
10300;DHT22;5195;48.562;9.192;2022-08-27T01:34:40;23.40;55.40
10300;DHT22;5195;48.562;9.192;2022-08-27T01:37:05;23.40;55.40
10300;DHT22;5195;48.562;9.192;2022-08-27T01:39:34;23.20;55.70
10300;DHT22;5195;48.562;9.192;2022-08-27T01:42:04;23.40;55.30
10300;DHT22;5195;48.562;9.192;2022-08-27T01:44:29;23.20;55.50
10300;DHT22;5195;48.562;9.192;2022-08-27T01:46:58;23.20;55.60
10300;DHT22;5195;48.562;9.192;2022-08-27T01:49:24;23.40;55.60
10300;DHT22;5195;48.562;9.192;2022-08-27T01:51:49;23.40;55.40
10300;DHT22;5195;48.562;9.192;2022-08-27T01:54:14;23.50;55.30
10300;DHT22;5195;48.562;9.192;2022-08-27T01:56:40;23.80;54.90
10300;DHT22;5195;48.562;9.192;2022-08-27T01:59:06;24.00;54.40
10300;DHT22;5195;48.562;9.192;2022-08-27T02:01:31;24.10;54.10
10300;DHT22;5195;48.562;9.192;2022-08-27T02:03:58;23.90;54.40
10300;DHT22;5195;48.562;9.192;2022-08-27T02:06:24;23.90;54.70
10300;DHT22;5195;48.562;9.192;2022-08-27T02:08:49;24.00;54.20
10300;DHT22;5195;48.562;9.192;2022-08-27T02:11:15;23.80;54.50
10300;DHT22;5195;48.562;9.192;2022-08-27T02:13:41;23.20;55.50
10300;DHT22;5195;48.562;9.192;2022-08-27T02:16:07;23.20;55.60
10300;DHT22;5195;48.562;9.192;2022-08-27T02:18:34;23.20;56.90
10300;DHT22;5195;48.562;9.192;2022-08-27T02:20:59;23.20;56.20
10300;DHT22;5195;48.562;9.192;2022-08-27T02:23:24;23.50;55.70
10300;DHT22;5195;48.562;9.192;2022-08-27T02:25:50;23.80;55.40
10300;DHT22;5195;48.562;9.192;2022-08-27T02:28:16;23.90;55.00
10300;DHT22;5195;48.562;9.192;2022-08-27T02:30:42;24.00;54.80
10300;DHT22;5195;48.562;9.192;2022-08-27T02:33:08;23.70;55.30
10300;DHT22;5195;48.562;9.192;2022-08-27T02:35:35;23.70;55.30
10300;DHT22;5195;48.562;9.192;2022-08-27T02:38:02;23.60;56.20
10300;DHT22;5195;48.562;9.192;2022-08-27T02:40:27;23.60;55.90
10300;DHT22;5195;48.562;9.192;2022-08-27T02:42:53;23.70;55.30
10300;DHT22;5195;48.562;9.192;2022-08-27T02:45:19;23.90;55.10
10300;DHT22;5195;48.562;9.192;2022-08-27T02:47:44;23.70;55.30
10300;DHT22;5195;48.562;9.192;2022-08-27T02:50:10;23.40;56.00
10300;DHT22;5195;48.562;9.192;2022-08-27T02:52:35;23.40;56.20
10300;DHT22;5195;48.562;9.192;2022-08-27T02:55:01;23.60;55.80
10300;DHT22;5195;48.562;9.192;2022-08-27T02:57:26;23.50;56.00
10300;DHT22;5195;48.562;9.192;2022-08-27T02:59:52;23.20;56.50
10300;DHT22;5195;48.562;9.192;2022-08-27T03:02:19;23.10;57.60
10300;DHT22;5195;48.562;9.192;2022-08-27T03:04:44;23.10;57.00
10300;DHT22;5195;48.562;9.192;2022-08-27T03:07:09;23.40;56.40
10300;DHT22;5195;48.562;9.192;2022-08-27T03:09:35;23.70;55.80
10300;DHT22;5195;48.562;9.192;2022-08-27T03:12:00;23.60;55.90
10300;DHT22;5195;48.562;9.192;2022-08-27T03:14:26;23.30;56.30
10300;DHT22;5195;48.562;9.192;2022-08-27T03:16:52;23.40;56.10
10300;DHT22;5195;48.562;9.192;2022-08-27T03:19:18;23.60;56.40
10300;DHT22;5195;48.562;9.192;2022-08-27T03:21:43;23.60;55.60
10300;DHT22;5195;48.562;9.192;2022-08-27T03:24:10;23.30;56.00
10300;DHT22;5195;48.562;9.192;2022-08-27T03:26:36;23.10;56.50
10300;DHT22;5195;48.562;9.192;2022-08-27T03:29:01;22.90;56.90
10300;DHT22;5195;48.562;9.192;2022-08-27T03:31:27;22.80;57.30
10300;DHT22;5195;48.562;9.192;2022-08-27T03:33:57;22.70;57.60
10300;DHT22;5195;48.562;9.192;2022-08-27T03:36:22;23.00;57.10
10300;DHT22;5195;48.562;9.192;2022-08-27T03:38:48;23.00;57.10
10300;DHT22;5195;48.562;9.192;2022-08-27T03:41:13;22.90;57.30
10300;DHT22;5195;48.562;9.192;2022-08-27T03:43:39;23.10;57.10
10300;DHT22;5195;48.562;9.192;2022-08-27T03:46:05;23.20;56.90
10300;DHT22;5195;48.562;9.192;2022-08-27T03:48:30;23.40;56.70
10300;DHT22;5195;48.562;9.192;2022-08-27T03:50:55;23.70;55.80
10300;DHT22;5195;48.562;9.192;2022-08-27T03:53:21;23.90;55.20
10300;DHT22;5195;48.562;9.192;2022-08-27T03:55:47;24.00;54.70
10300;DHT22;5195;48.562;9.192;2022-08-27T03:58:12;23.80;55.10
10300;DHT22;5195;48.562;9.192;2022-08-27T04:00:38;23.40;55.70
10300;DHT22;5195;48.562;9.192;2022-08-27T04:03:03;23.50;56.00
10300;DHT22;5195;48.562;9.192;2022-08-27T04:05:29;23.30;56.00
10300;DHT22;5195;48.562;9.192;2022-08-27T04:07:54;23.10;56.50
10300;DHT22;5195;48.562;9.192;2022-08-27T04:10:20;22.90;57.00
10300;DHT22;5195;48.562;9.192;2022-08-27T04:12:46;23.10;57.00
10300;DHT22;5195;48.562;9.192;2022-08-27T04:15:11;23.10;56.80
10300;DHT22;5195;48.562;9.192;2022-08-27T04:17:38;23.20;56.60
10300;DHT22;5195;48.562;9.192;2022-08-27T04:20:04;23.20;56.60
10300;DHT22;5195;48.562;9.192;2022-08-27T04:22:29;23.00;57.00
10300;DHT22;5195;48.562;9.192;2022-08-27T04:24:56;22.80;57.30
10300;DHT22;5195;48.562;9.192;2022-08-27T04:27:21;23.00;57.20
10300;DHT22;5195;48.562;9.192;2022-08-27T04:29:47;23.00;56.90
10300;DHT22;5195;48.562;9.192;2022-08-27T04:32:13;23.10;56.80
10300;DHT22;5195;48.562;9.192;2022-08-27T04:34:39;23.20;56.70
10300;DHT22;5195;48.562;9.192;2022-08-27T04:37:05;23.20;56.70
10300;DHT22;5195;48.562;9.192;2022-08-27T04:39:31;23.50;56.20
10300;DHT22;5195;48.562;9.192;2022-08-27T04:41:57;23.70;55.70
10300;DHT22;5195;48.562;9.192;2022-08-27T04:44:22;23.80;55.30
10300;DHT22;5195;48.562;9.192;2022-08-27T04:46:48;23.80;55.30
10300;DHT22;5195;48.562;9.192;2022-08-27T04:49:14;23.70;55.20
10300;DHT22;5195;48.562;9.192;2022-08-27T04:51:40;23.10;56.30
10300;DHT22;5195;48.562;9.192;2022-08-27T04:54:06;23.30;56.20
10300;DHT22;5195;48.562;9.192;2022-08-27T04:56:33;23.60;55.60
10300;DHT22;5195;48.562;9.192;2022-08-27T04:58:58;23.60;55.60
10300;DHT22;5195;48.562;9.192;2022-08-27T05:01:25;23.50;55.60
10300;DHT22;5195;48.562;9.192;2022-08-27T05:03:49;23.30;56.10
10300;DHT22;5195;48.562;9.192;2022-08-27T05:06:15;23.00;56.20
10300;DHT22;5195;48.562;9.192;2022-08-27T05:08:40;23.20;55.90
10300;DHT22;5195;48.562;9.192;2022-08-27T05:11:11;23.50;55.30
10300;DHT22;5195;48.562;9.192;2022-08-27T05:13:35;23.80;54.90
10300;DHT22;5195;48.562;9.192;2022-08-27T05:16:02;23.70;55.00
10300;DHT22;5195;48.562;9.192;2022-08-27T05:18:26;23.70;54.70
10300;DHT22;5195;48.562;9.192;2022-08-27T05:20:52;23.60;55.00
10300;DHT22;5195;48.562;9.192;2022-08-27T05:23:18;23.60;55.30
10300;DHT22;5195;48.562;9.192;2022-08-27T05:25:45;23.70;55.40
10300;DHT22;5195;48.562;9.192;2022-08-27T05:28:09;23.60;55.30
10300;DHT22;5195;48.562;9.192;2022-08-27T05:30:38;23.90;55.60
10300;DHT22;5195;48.562;9.192;2022-08-27T05:33:03;24.00;55.20
10300;DHT22;5195;48.562;9.192;2022-08-27T05:35:29;24.10;54.90
10300;DHT22;5195;48.562;9.192;2022-08-27T05:37:54;23.90;55.30
10300;DHT22;5195;48.562;9.192;2022-08-27T05:40:20;23.60;56.10
10300;DHT22;5195;48.562;9.192;2022-08-27T05:42:55;23.70;56.20
10300;DHT22;5195;48.562;9.192;2022-08-27T05:45:42;23.80;56.10
10300;DHT22;5195;48.562;9.192;2022-08-27T05:48:07;23.70;55.90
10300;DHT22;5195;48.562;9.192;2022-08-27T05:50:43;23.50;56.50
10300;DHT22;5195;48.562;9.192;2022-08-27T05:53:21;23.10;57.30
10300;DHT22;5195;48.562;9.192;2022-08-27T05:55:56;23.10;57.30
10300;DHT22;5195;48.562;9.192;2022-08-27T05:58:32;23.40;57.20
10300;DHT22;5195;48.562;9.192;2022-08-27T06:01:28;23.80;56.40
10300;DHT22;5195;48.562;9.192;2022-08-27T06:04:04;23.70;56.40
10300;DHT22;5195;48.562;9.192;2022-08-27T06:06:40;23.50;56.70
10300;DHT22;5195;48.562;9.192;2022-08-27T06:09:18;23.30;57.10
10300;DHT22;5195;48.562;9.192;2022-08-27T06:11:53;23.50;57.30
10300;DHT22;5195;48.562;9.192;2022-08-27T06:14:28;23.90;57.10
10300;DHT22;5195;48.562;9.192;2022-08-27T06:17:04;23.90;56.20
10300;DHT22;5195;48.562;9.192;2022-08-27T06:19:40;24.00;55.10
10300;DHT22;5195;48.562;9.192;2022-08-27T06:22:16;24.30;55.10
10300;DHT22;5195;48.562;9.192;2022-08-27T06:24:51;24.30;55.10
10300;DHT22;5195;48.562;9.192;2022-08-27T06:27:27;24.00;55.30
10300;DHT22;5195;48.562;9.192;2022-08-27T06:30:03;23.80;55.60
10300;DHT22;5195;48.562;9.192;2022-08-27T06:32:38;23.70;55.70
10300;DHT22;5195;48.562;9.192;2022-08-27T06:35:14;23.60;55.80
10300;DHT22;5195;48.562;9.192;2022-08-27T06:37:49;23.70;56.00
10300;DHT22;5195;48.562;9.192;2022-08-27T06:40:25;24.00;54.90
10300;DHT22;5195;48.562;9.192;2022-08-27T06:43:00;24.50;53.80
10300;DHT22;5195;48.562;9.192;2022-08-27T06:45:37;24.50;53.90
10300;DHT22;5195;48.562;9.192;2022-08-27T06:48:13;24.70;53.90
10300;DHT22;5195;48.562;9.192;2022-08-27T07:15:14;23.80;56.10
10300;DHT22;5195;48.562;9.192;2022-08-27T07:17:39;23.80;56.20
10300;DHT22;5195;48.562;9.192;2022-08-27T07:20:06;24.10;55.00
10300;DHT22;5195;48.562;9.192;2022-08-27T07:22:32;24.20;54.80
10300;DHT22;5195;48.562;9.192;2022-08-27T07:24:58;24.60;54.10
10300;DHT22;5195;48.562;9.192;2022-08-27T07:27:24;24.60;54.40
10300;DHT22;5195;48.562;9.192;2022-08-27T07:29:49;24.40;54.60
10300;DHT22;5195;48.562;9.192;2022-08-27T07:32:16;24.50;54.40
10300;DHT22;5195;48.562;9.192;2022-08-27T07:34:41;24.50;54.40
10300;DHT22;5195;48.562;9.192;2022-08-27T07:37:08;24.70;54.80
10300;DHT22;5195;48.562;9.192;2022-08-27T07:39:34;25.00;54.10
10300;DHT22;5195;48.562;9.192;2022-08-27T07:41:59;24.90;54.10
10300;DHT22;5195;48.562;9.192;2022-08-27T07:44:44;24.60;54.40
10300;DHT22;5195;48.562;9.192;2022-08-27T07:47:10;24.70;54.40
10300;DHT22;5195;48.562;9.192;2022-08-27T07:49:35;25.00;54.20
10300;DHT22;5195;48.562;9.192;2022-08-27T07:52:02;25.30;54.00
10300;DHT22;5195;48.562;9.192;2022-08-27T07:54:27;25.20;54.00
10300;DHT22;5195;48.562;9.192;2022-08-27T07:56:53;25.20;53.70
10300;DHT22;5195;48.562;9.192;2022-08-27T07:59:18;25.40;53.40
10300;DHT22;5195;48.562;9.192;2022-08-27T08:01:43;25.20;53.60
10300;DHT22;5195;48.562;9.192;2022-08-27T08:04:09;25.20;53.30
10300;DHT22;5195;48.562;9.192;2022-08-27T08:06:37;24.80;54.30
10300;DHT22;5195;48.562;9.192;2022-08-27T08:09:04;24.80;54.30
10300;DHT22;5195;48.562;9.192;2022-08-27T08:11:30;24.90;54.10
10300;DHT22;5195;48.562;9.192;2022-08-27T08:13:57;25.10;53.40
10300;DHT22;5195;48.562;9.192;2022-08-27T08:16:27;25.10;53.60
10300;DHT22;5195;48.562;9.192;2022-08-27T08:18:53;25.30;53.60
10300;DHT22;5195;48.562;9.192;2022-08-27T08:21:19;25.20;53.50
10300;DHT22;5195;48.562;9.192;2022-08-27T08:23:46;25.50;53.30
10300;DHT22;5195;48.562;9.192;2022-08-27T08:26:11;25.40;53.40
10300;DHT22;5195;48.562;9.192;2022-08-27T08:28:38;25.00;53.70
10300;DHT22;5195;48.562;9.192;2022-08-27T08:31:02;25.10;53.60
10300;DHT22;5195;48.562;9.192;2022-08-27T08:33:28;25.40;53.10
10300;DHT22;5195;48.562;9.192;2022-08-27T08:36:00;25.30;53.00
10300;DHT22;5195;48.562;9.192;2022-08-27T08:38:20;25.20;52.90
10300;DHT22;5195;48.562;9.192;2022-08-27T08:40:50;25.40;52.90
10300;DHT22;5195;48.562;9.192;2022-08-27T08:45:57;25.40;53.00
10300;DHT22;5195;48.562;9.192;2022-08-27T08:48:22;25.40;53.40
10300;DHT22;5195;48.562;9.192;2022-08-27T08:53:49;25.00;54.10
10300;DHT22;5195;48.562;9.192;2022-08-27T08:56:46;24.70;54.50
10300;DHT22;5195;48.562;9.192;2022-08-27T08:58:45;24.80;54.50
10300;DHT22;5195;48.562;9.192;2022-08-27T09:01:10;24.70;54.40
10300;DHT22;5195;48.562;9.192;2022-08-27T09:03:37;24.50;54.80
10300;DHT22;5195;48.562;9.192;2022-08-27T09:06:06;24.10;56.10
10300;DHT22;5195;48.562;9.192;2022-08-27T09:08:31;24.10;55.50
10300;DHT22;5195;48.562;9.192;2022-08-27T09:13:42;24.30;56.30
10300;DHT22;5195;48.562;9.192;2022-08-27T09:16:08;24.50;55.80
10300;DHT22;5195;48.562;9.192;2022-08-27T09:18:38;24.50;55.70
10300;DHT22;5195;48.562;9.192;2022-08-27T09:26:29;24.30;56.50
10300;DHT22;5195;48.562;9.192;2022-08-27T09:29:02;24.70;56.00
10300;DHT22;5195;48.562;9.192;2022-08-27T09:32:00;24.80;55.80
10300;DHT22;5195;48.562;9.192;2022-08-27T09:34:27;25.50;53.80
10300;DHT22;5195;48.562;9.192;2022-08-27T09:36:56;25.50;53.80
10300;DHT22;5195;48.562;9.192;2022-08-27T09:39:24;25.50;53.70
10300;DHT22;5195;48.562;9.192;2022-08-27T09:41:46;25.50;53.70
10300;DHT22;5195;48.562;9.192;2022-08-27T09:44:11;25.40;54.00
10300;DHT22;5195;48.562;9.192;2022-08-27T09:46:36;25.20;54.50
10300;DHT22;5195;48.562;9.192;2022-08-27T09:49:12;25.30;54.90
10300;DHT22;5195;48.562;9.192;2022-08-27T09:51:39;25.60;54.20
10300;DHT22;5195;48.562;9.192;2022-08-27T09:54:04;25.50;54.00
10300;DHT22;5195;48.562;9.192;2022-08-27T09:56:34;25.60;53.50
10300;DHT22;5195;48.562;9.192;2022-08-27T09:59:18;25.80;53.10
10300;DHT22;5195;48.562;9.192;2022-08-27T10:01:52;25.60;53.20
10300;DHT22;5195;48.562;9.192;2022-08-27T10:04:23;25.40;53.70
10300;DHT22;5195;48.562;9.192;2022-08-27T10:06:47;25.40;53.00
10300;DHT22;5195;48.562;9.192;2022-08-27T10:09:33;25.40;55.40
10300;DHT22;5195;48.562;9.192;2022-08-27T10:11:59;25.40;55.30
10300;DHT22;5195;48.562;9.192;2022-08-27T10:14:27;25.00;56.20
10300;DHT22;5195;48.562;9.192;2022-08-27T10:29:51;24.60;58.30
10300;DHT22;5195;48.562;9.192;2022-08-27T10:35:15;23.70;59.40
10300;DHT22;5195;48.562;9.192;2022-08-27T10:37:52;23.70;59.40
10300;DHT22;5195;48.562;9.192;2022-08-27T10:40:21;23.90;60.50
10300;DHT22;5195;48.562;9.192;2022-08-27T10:42:56;24.20;60.40
10300;DHT22;5195;48.562;9.192;2022-08-27T10:50:55;24.10;59.70
10300;DHT22;5195;48.562;9.192;2022-08-27T10:53:29;24.00;59.50
10300;DHT22;5195;48.562;9.192;2022-08-27T10:55:54;24.30;59.40
10300;DHT22;5195;48.562;9.192;2022-08-27T10:58:35;24.30;59.40
10300;DHT22;5195;48.562;9.192;2022-08-27T11:03:26;24.70;57.40
10300;DHT22;5195;48.562;9.192;2022-08-27T11:05:50;24.50;57.60
10300;DHT22;5195;48.562;9.192;2022-08-27T11:08:24;24.20;58.40
10300;DHT22;5195;48.562;9.192;2022-08-27T11:11:04;24.20;58.40
10300;DHT22;5195;48.562;9.192;2022-08-27T11:13:32;23.80;58.80
10300;DHT22;5195;48.562;9.192;2022-08-27T11:15:55;23.50;59.50
10300;DHT22;5195;48.562;9.192;2022-08-27T11:18:46;23.20;60.00
10300;DHT22;5195;48.562;9.192;2022-08-27T11:21:30;23.00;60.50
10300;DHT22;5195;48.562;9.192;2022-08-27T11:23:53;23.20;62.10
10300;DHT22;5195;48.562;9.192;2022-08-27T11:26:17;23.20;61.90
10300;DHT22;5195;48.562;9.192;2022-08-27T11:28:45;22.90;62.20
10300;DHT22;5195;48.562;9.192;2022-08-27T11:31:25;23.10;63.00
10300;DHT22;5195;48.562;9.192;2022-08-27T11:33:58;23.20;62.70
10300;DHT22;5195;48.562;9.192;2022-08-27T11:39:54;23.60;62.50
10300;DHT22;5195;48.562;9.192;2022-08-27T11:42:34;23.90;61.20
10300;DHT22;5195;48.562;9.192;2022-08-27T11:45:02;23.60;61.20
10300;DHT22;5195;48.562;9.192;2022-08-27T11:47:24;23.10;61.70
10300;DHT22;5195;48.562;9.192;2022-08-27T11:49:55;22.60;63.20
10300;DHT22;5195;48.562;9.192;2022-08-27T11:52:23;22.60;63.30
10300;DHT22;5195;48.562;9.192;2022-08-27T11:54:49;22.40;63.80
10300;DHT22;5195;48.562;9.192;2022-08-27T11:57:30;22.30;64.20
10300;DHT22;5195;48.562;9.192;2022-08-27T11:59:55;22.10;64.80
10300;DHT22;5195;48.562;9.192;2022-08-27T12:02:22;22.00;65.70
10300;DHT22;5195;48.562;9.192;2022-08-27T12:04:46;22.00;66.40
10300;DHT22;5195;48.562;9.192;2022-08-27T12:29:27;22.30;70.50
10300;DHT22;5195;48.562;9.192;2022-08-27T12:31:51;22.20;70.30
10300;DHT22;5195;48.562;9.192;2022-08-27T12:34:22;22.60;71.80
10300;DHT22;5195;48.562;9.192;2022-08-27T12:36:47;22.60;71.70
10300;DHT22;5195;48.562;9.192;2022-08-27T12:39:25;22.50;71.60
10300;DHT22;5195;48.562;9.192;2022-08-27T12:55:37;24.00;64.80
10300;DHT22;5195;48.562;9.192;2022-08-27T13:03:51;24.00;64.70
10300;DHT22;5195;48.562;9.192;2022-08-27T13:06:42;23.60;65.00
10300;DHT22;5195;48.562;9.192;2022-08-27T13:09:05;23.40;66.20
10300;DHT22;5195;48.562;9.192;2022-08-27T13:11:31;23.60;67.40
10300;DHT22;5195;48.562;9.192;2022-08-27T13:14:17;23.70;64.80
10300;DHT22;5195;48.562;9.192;2022-08-27T13:16:32;23.70;64.40
10300;DHT22;5195;48.562;9.192;2022-08-27T13:18:58;23.20;66.40
10300;DHT22;5195;48.562;9.192;2022-08-27T13:21:25;23.10;66.30
10300;DHT22;5195;48.562;9.192;2022-08-27T13:23:54;22.90;67.60
10300;DHT22;5195;48.562;9.192;2022-08-27T13:26:20;23.00;68.00
10300;DHT22;5195;48.562;9.192;2022-08-27T13:28:45;23.20;67.70
10300;DHT22;5195;48.562;9.192;2022-08-27T13:31:10;23.10;68.10
10300;DHT22;5195;48.562;9.192;2022-08-27T13:33:37;22.90;68.90
10300;DHT22;5195;48.562;9.192;2022-08-27T13:36:04;22.60;70.90
10300;DHT22;5195;48.562;9.192;2022-08-27T13:38:30;22.60;70.90
10300;DHT22;5195;48.562;9.192;2022-08-27T13:41:00;22.60;71.10
10300;DHT22;5195;48.562;9.192;2022-08-27T13:43:37;23.30;67.60
10300;DHT22;5195;48.562;9.192;2022-08-27T13:46:03;23.40;67.40
10300;DHT22;5195;48.562;9.192;2022-08-27T13:48:27;24.00;62.80
10300;DHT22;5195;48.562;9.192;2022-08-27T13:50:53;24.00;62.80
10300;DHT22;5195;48.562;9.192;2022-08-27T13:53:26;24.20;62.90
10300;DHT22;5195;48.562;9.192;2022-08-27T13:56:07;24.10;62.90
10300;DHT22;5195;48.562;9.192;2022-08-27T13:58:34;23.70;63.50
10300;DHT22;5195;48.562;9.192;2022-08-27T14:01:14;23.50;64.00
10300;DHT22;5195;48.562;9.192;2022-08-27T14:03:48;23.90;64.40
10300;DHT22;5195;48.562;9.192;2022-08-27T14:06:21;23.80;64.30
10300;DHT22;5195;48.562;9.192;2022-08-27T14:08:37;23.70;65.80
10300;DHT22;5195;48.562;9.192;2022-08-27T14:11:08;23.60;64.90
10300;DHT22;5195;48.562;9.192;2022-08-27T14:13:41;23.80;64.00
10300;DHT22;5195;48.562;9.192;2022-08-27T14:16:24;24.30;62.60
10300;DHT22;5195;48.562;9.192;2022-08-27T14:18:50;24.30;62.60
10300;DHT22;5195;48.562;9.192;2022-08-27T14:21:14;24.20;62.40
10300;DHT22;5195;48.562;9.192;2022-08-27T14:23:40;24.10;62.00
10300;DHT22;5195;48.562;9.192;2022-08-27T14:26:05;24.10;62.00
10300;DHT22;5195;48.562;9.192;2022-08-27T14:28:33;23.80;63.40
10300;DHT22;5195;48.562;9.192;2022-08-27T14:30:58;23.80;63.40
10300;DHT22;5195;48.562;9.192;2022-08-27T14:33:24;23.60;64.00
10300;DHT22;5195;48.562;9.192;2022-08-27T14:35:50;23.90;65.30
10300;DHT22;5195;48.562;9.192;2022-08-27T14:38:18;24.20;62.80
10300;DHT22;5195;48.562;9.192;2022-08-27T14:40:41;24.10;62.80
10300;DHT22;5195;48.562;9.192;2022-08-27T14:43:07;24.40;61.30
10300;DHT22;5195;48.562;9.192;2022-08-27T14:45:33;24.60;59.00
10300;DHT22;5195;48.562;9.192;2022-08-27T14:47:58;24.80;58.60
10300;DHT22;5195;48.562;9.192;2022-08-27T14:50:24;24.60;58.80
10300;DHT22;5195;48.562;9.192;2022-08-27T14:52:50;24.30;57.20
10300;DHT22;5195;48.562;9.192;2022-08-27T14:55:16;24.30;57.50
10300;DHT22;5195;48.562;9.192;2022-08-27T14:57:41;24.50;58.40
10300;DHT22;5195;48.562;9.192;2022-08-27T15:00:08;24.50;58.70
10300;DHT22;5195;48.562;9.192;2022-08-27T15:02:33;24.50;58.70
10300;DHT22;5195;48.562;9.192;2022-08-27T15:04:59;24.30;59.60
10300;DHT22;5195;48.562;9.192;2022-08-27T15:07:24;24.30;59.30
10300;DHT22;5195;48.562;9.192;2022-08-27T15:09:50;24.30;59.70
10300;DHT22;5195;48.562;9.192;2022-08-27T15:12:17;24.40;59.40
10300;DHT22;5195;48.562;9.192;2022-08-27T15:14:45;24.30;59.60
10300;DHT22;5195;48.562;9.192;2022-08-27T15:17:11;24.50;58.80
10300;DHT22;5195;48.562;9.192;2022-08-27T15:19:38;24.40;58.70
10300;DHT22;5195;48.562;9.192;2022-08-27T15:22:07;24.20;59.20
10300;DHT22;5195;48.562;9.192;2022-08-27T15:24:31;24.30;57.50
10300;DHT22;5195;48.562;9.192;2022-08-27T15:26:55;24.30;58.00
10300;DHT22;5195;48.562;9.192;2022-08-27T15:29:20;24.10;58.40
10300;DHT22;5195;48.562;9.192;2022-08-27T15:31:46;24.20;56.80
10300;DHT22;5195;48.562;9.192;2022-08-27T15:34:11;24.20;57.60
10300;DHT22;5195;48.562;9.192;2022-08-27T15:36:37;24.50;56.70
10300;DHT22;5195;48.562;9.192;2022-08-27T15:39:03;24.50;56.10
10300;DHT22;5195;48.562;9.192;2022-08-27T15:41:29;24.30;56.50
10300;DHT22;5195;48.562;9.192;2022-08-27T15:43:54;24.40;55.50
10300;DHT22;5195;48.562;9.192;2022-08-27T15:46:20;24.20;56.40
10300;DHT22;5195;48.562;9.192;2022-08-27T15:48:45;24.30;55.50
10300;DHT22;5195;48.562;9.192;2022-08-27T15:51:11;24.50;55.30
10300;DHT22;5195;48.562;9.192;2022-08-27T15:53:36;24.60;54.80
10300;DHT22;5195;48.562;9.192;2022-08-27T15:56:03;24.40;55.70
10300;DHT22;5195;48.562;9.192;2022-08-27T15:58:28;24.10;56.60
10300;DHT22;5195;48.562;9.192;2022-08-27T16:00:53;23.80;57.30
10300;DHT22;5195;48.562;9.192;2022-08-27T16:03:19;23.90;58.80
10300;DHT22;5195;48.562;9.192;2022-08-27T16:05:45;24.20;58.00
10300;DHT22;5195;48.562;9.192;2022-08-27T16:08:10;24.50;57.80
10300;DHT22;5195;48.562;9.192;2022-08-27T16:10:35;24.70;57.50
10300;DHT22;5195;48.562;9.192;2022-08-27T16:13:04;24.60;57.90
10300;DHT22;5195;48.562;9.192;2022-08-27T16:15:31;24.90;57.20
10300;DHT22;5195;48.562;9.192;2022-08-27T16:17:59;24.90;57.10
10300;DHT22;5195;48.562;9.192;2022-08-27T16:20:24;24.90;57.60
10300;DHT22;5195;48.562;9.192;2022-08-27T16:22:49;24.90;56.90
10300;DHT22;5195;48.562;9.192;2022-08-27T16:25:15;25.20;56.80
10300;DHT22;5195;48.562;9.192;2022-08-27T16:27:40;25.10;57.20
10300;DHT22;5195;48.562;9.192;2022-08-27T16:30:06;25.10;56.70
10300;DHT22;5195;48.562;9.192;2022-08-27T16:32:32;25.10;57.30
10300;DHT22;5195;48.562;9.192;2022-08-27T16:34:59;24.80;57.90
10300;DHT22;5195;48.562;9.192;2022-08-27T16:37:24;24.50;58.50
10300;DHT22;5195;48.562;9.192;2022-08-27T16:39:51;24.60;57.80
10300;DHT22;5195;48.562;9.192;2022-08-27T16:42:18;24.30;59.50
10300;DHT22;5195;48.562;9.192;2022-08-27T16:44:44;24.30;59.50
10300;DHT22;5195;48.562;9.192;2022-08-27T16:47:09;24.20;60.00
10300;DHT22;5195;48.562;9.192;2022-08-27T16:49:36;24.00;60.30
10300;DHT22;5195;48.562;9.192;2022-08-27T16:52:24;23.80;60.90
10300;DHT22;5195;48.562;9.192;2022-08-27T16:54:50;23.60;61.60
10300;DHT22;5195;48.562;9.192;2022-08-27T16:57:16;23.90;62.50
10300;DHT22;5195;48.562;9.192;2022-08-27T16:59:42;23.90;62.30
10300;DHT22;5195;48.562;9.192;2022-08-27T17:02:58;24.40;62.40
10300;DHT22;5195;48.562;9.192;2022-08-27T17:04:37;24.60;60.90
10300;DHT22;5195;48.562;9.192;2022-08-27T17:07:35;24.60;60.90
10300;DHT22;5195;48.562;9.192;2022-08-27T17:10:32;24.80;60.50
10300;DHT22;5195;48.562;9.192;2022-08-27T17:13:11;24.60;61.00
10300;DHT22;5195;48.562;9.192;2022-08-27T17:51:10;22.40;67.70
10300;DHT22;5195;48.562;9.192;2022-08-27T17:53:50;22.30;67.70
10300;DHT22;5195;48.562;9.192;2022-08-27T17:56:25;22.40;67.60
10300;DHT22;5195;48.562;9.192;2022-08-27T17:59:04;22.40;67.30
10300;DHT22;5195;48.562;9.192;2022-08-27T18:01:39;22.40;67.10
10300;DHT22;5195;48.562;9.192;2022-08-27T18:04:16;22.40;67.00
10300;DHT22;5195;48.562;9.192;2022-08-27T18:06:52;22.40;67.00
10300;DHT22;5195;48.562;9.192;2022-08-27T18:09:27;22.70;65.70
10300;DHT22;5195;48.562;9.192;2022-08-27T18:12:03;23.20;64.50
10300;DHT22;5195;48.562;9.192;2022-08-27T18:14:39;23.50;62.50